Time;durP1;ratioP1;P1;durP2;ratioP2;P2;SDS_P1;SDS_P2;PMS_P1;PMS_P2;Temp;Humidity;BMP_temperature;BMP_pressure;BME280_temperature;BME280_humidity;BME280_pressure;Samples;Min_cycle;Max_cycle;Signal;HPM_P1;HPM_P2
2021/12/30 00:01:08;;;;;;;3.35;2.40;;;;;;;12.82;100.00;100336.91;5031462;28;20132;-72
2021/12/30 00:03:52;;;;;;;3.95;2.63;;;;;;;12.84;100.00;100335.75;5031454;28;20519;-72
2021/12/30 00:06:40;;;;;;;3.78;1.92;;;;;;;12.86;100.00;100338.28;5032887;28;20072;-71
2021/12/30 00:09:25;;;;;;;4.97;1.85;;;;;;;12.86;100.00;100339.09;5032853;28;20055;-72
2021/12/30 00:12:09;;;;;;;3.08;2.20;;;;;;;12.88;100.00;100341.63;5032548;28;20075;-72
2021/12/30 00:14:54;;;;;;;2.67;1.45;;;;;;;12.93;100.00;100350.91;5032534;28;20044;-73
2021/12/30 00:17:38;;;;;;;3.50;2.00;;;;;;;12.97;100.00;100351.44;5032472;28;20067;-73
2021/12/30 00:20:22;;;;;;;4.90;1.95;;;;;;;12.91;100.00;100362.72;5017206;28;20132;-72
2021/12/30 00:23:08;;;;;;;5.10;1.60;;;;;;;12.94;100.00;100362.47;5031652;28;20091;-72
2021/12/30 00:25:52;;;;;;;2.28;1.77;;;;;;;12.94;100.00;100373.16;5031359;28;20416;-72
2021/12/30 00:28:36;;;;;;;3.88;1.98;;;;;;;12.96;100.00;100379.19;5031504;28;20049;-72
2021/12/30 00:31:19;;;;;;;4.97;2.03;;;;;;;13.00;100.00;100380.56;5032344;28;20052;-71
2021/12/30 00:34:03;;;;;;;;;;;;;;;13.07;100.00;100379.75;5031597;28;20048;-73
2021/12/30 00:36:47;;;;;;;3.43;1.40;;;;;;;12.97;100.00;100380.88;5031227;28;20384;-72
2021/12/30 00:39:31;;;;;;;;;;;;;;;12.94;100.00;100389.22;5031323;28;20107;-72
2021/12/30 00:42:15;;;;;;;4.45;1.52;;;;;;;13.08;100.00;100391.31;5032014;28;19963;-72
2021/12/30 00:44:59;;;;;;;;;;;;;;;12.97;100.00;100399.59;5032540;28;20516;-72
2021/12/30 00:47:43;;;;;;;3.13;1.10;;;;;;;12.91;100.00;100401.03;5016935;28;19959;-72
2021/12/30 00:50:27;;;;;;;4.57;1.50;;;;;;;12.79;100.00;100396.06;5031031;28;20797;-71
2021/12/30 00:53:12;;;;;;;1.88;1.58;;;;;;;12.63;100.00;100403.13;5030993;28;20104;-71
2021/12/30 00:55:56;;;;;;;3.50;2.10;;;;;;;12.60;100.00;100412.28;5030977;28;20052;-72
2021/12/30 00:58:39;;;;;;;3.83;1.63;;;;;;;12.59;100.00;100415.97;5030873;28;20071;-72
2021/12/30 01:01:25;;;;;;;5.28;1.60;;;;;;;12.66;100.00;100418.84;5030692;28;20048;-71
2021/12/30 01:04:09;;;;;;;1.75;1.65;;;;;;;12.63;100.00;100422.72;5030915;28;20067;-72
2021/12/30 01:06:53;;;;;;;3.28;1.73;;;;;;;12.39;100.00;100435.81;5030788;28;20171;-72
2021/12/30 01:09:37;;;;;;;;;;;;;;;12.38;100.00;100439.50;5017330;28;20139;-72
2021/12/30 01:12:21;;;;;;;4.43;1.97;;;;;;;12.34;100.00;100437.28;5030874;28;19920;-72
2021/12/30 01:15:09;;;;;;;3.08;2.15;;;;;;;12.34;100.00;100431.91;5031826;28;20091;-72
2021/12/30 01:17:59;;;;;;;3.83;2.28;;;;;;;12.28;100.00;100444.06;5030819;28;20564;-71
2021/12/30 01:20:43;;;;;;;5.80;2.50;;;;;;;12.30;100.00;100450.09;5031461;28;20107;-72
2021/12/30 01:23:28;;;;;;;4.55;2.40;;;;;;;12.26;100.00;100435.38;5031525;28;20111;-72
2021/12/30 01:26:12;;;;;;;3.50;2.55;;;;;;;12.32;100.00;100445.47;5030733;28;20055;-72
2021/12/30 01:28:55;;;;;;;4.07;2.30;;;;;;;12.28;100.00;100448.59;5030640;28;20056;-72
2021/12/30 01:31:39;;;;;;;3.55;2.17;;;;;;;12.27;100.00;100461.09;5030660;28;20107;-71
2021/12/30 01:34:26;;;;;;;3.50;2.38;;;;;;;12.30;100.00;100455.44;5034403;28;20503;-72
2021/12/30 01:37:12;;;;;;;6.10;2.05;;;;;;;12.45;100.00;100478.00;5034321;28;20060;-72
2021/12/30 01:39:57;;;;;;;4.32;2.10;;;;;;;12.55;100.00;100477.94;5035152;28;20049;-72
2021/12/30 01:42:41;;;;;;;2.40;1.65;;;;;;;12.85;100.00;100481.09;5034191;28;20124;-72
2021/12/30 01:45:24;;;;;;;2.55;1.63;;;;;;;12.85;100.00;100467.72;5034128;28;20114;-72
2021/12/30 01:48:11;;;;;;;2.95;1.70;;;;;;;13.06;100.00;100473.59;5034120;28;20068;-72
2021/12/30 01:50:55;;;;;;;5.30;1.67;;;;;;;13.17;100.00;100476.03;5033972;28;20120;-72
2021/12/30 01:53:39;;;;;;;5.07;1.55;;;;;;;13.10;100.00;100474.97;5033818;28;20052;-72
2021/12/30 01:56:23;;;;;;;3.00;1.52;;;;;;;13.14;100.00;100492.41;5019934;28;20052;-72
2021/12/30 01:59:08;;;;;;;4.28;1.45;;;;;;;13.25;100.00;100500.19;5033582;28;20099;-72
2021/12/30 02:01:56;;;;;;;1.65;1.40;;;;;;;13.25;100.00;100500.19;5034792;28;20071;-71
2021/12/30 02:04:40;;;;;;;2.97;1.40;;;;;;;13.31;100.00;100496.88;5033811;28;20507;-72
2021/12/30 02:07:24;;;;;;;2.67;1.50;;;;;;;13.32;100.00;100501.25;5034615;28;20052;-72
2021/12/30 02:10:10;;;;;;;3.35;1.30;;;;;;;13.40;100.00;100498.63;5033569;28;20179;-72
2021/12/30 02:12:54;;;;;;;2.38;1.70;;;;;;;13.36;100.00;100491.91;5034737;28;20508;-72
2021/12/30 02:15:38;;;;;;;3.40;1.67;;;;;;;13.28;100.00;100494.53;5034686;28;20134;-72
2021/12/30 02:18:23;;;;;;;3.03;2.28;;;;;;;13.33;100.00;100494.88;5034605;28;20133;-71
2021/12/30 02:21:07;;;;;;;3.17;1.33;;;;;;;13.36;100.00;100507.97;5033205;28;20136;-72
2021/12/30 02:23:51;;;;;;;2.92;1.75;;;;;;;13.34;100.00;100499.28;5034698;28;20129;-72
2021/12/30 02:26:35;;;;;;;3.83;1.52;;;;;;;13.38;100.00;100501.44;5033429;28;20052;-72
2021/12/30 02:29:19;;;;;;;2.15;1.30;;;;;;;13.39;100.00;100504.97;5033293;28;20095;-72
2021/12/30 02:32:04;;;;;;;1.38;1.20;;;;;;;13.40;100.00;100498.63;5019304;28;20402;-71
2021/12/30 02:34:49;;;;;;;3.75;1.20;;;;;;;13.42;100.00;100512.69;5034571;28;20057;-72
2021/12/30 02:37:34;;;;;;;2.25;1.25;;;;;;;13.35;100.00;100517.00;5033166;28;20464;-72
2021/12/30 02:40:33;;;;;;;3.05;1.38;;;;;;;13.45;100.00;100512.41;5034010;28;20056;-72
2021/12/30 02:43:20;;;;;;;2.83;1.63;;;;;;;13.30;100.00;100508.59;5032832;28;20087;-71
2021/12/30 02:46:04;;;;;;;4.90;1.70;;;;;;;13.14;100.00;100519.19;5032471;28;20508;-72
2021/12/30 02:48:52;;;;;;;4.20;1.58;;;;;;;13.18;100.00;100510.69;5033776;28;20552;-72
2021/12/30 02:51:36;;;;;;;4.35;1.83;;;;;;;13.23;100.00;100524.44;5032669;28;20052;-72
2021/12/30 02:54:20;;;;;;;2.30;1.58;;;;;;;13.16;100.00;100522.53;5033144;28;20146;-72
2021/12/30 02:57:04;;;;;;;3.97;1.63;;;;;;;13.18;100.00;100536.59;5033885;28;20404;-72
2021/12/30 02:59:48;;;;;;;2.05;1.65;;;;;;;13.22;100.00;100527.25;5033699;28;20052;-72
2021/12/30 03:02:35;;;;;;;3.95;1.63;;;;;;;13.25;100.00;100537.69;5033608;28;20099;-72
2021/12/30 03:05:20;;;;;;;5.60;1.92;;;;;;;13.19;100.00;100536.47;5033760;28;20104;-72
2021/12/30 03:08:07;;;;;;;4.35;1.40;;;;;;;13.20;100.00;100539.97;5032400;28;20048;-72
2021/12/30 03:10:51;;;;;;;2.85;1.45;;;;;;;13.21;100.00;100545.19;5018844;28;20048;-70
2021/12/30 03:13:36;;;;;;;1.95;1.67;;;;;;;13.24;100.00;100544.03;5033566;28;20135;-72
2021/12/30 03:16:25;;;;;;;1.58;1.42;;;;;;;13.27;100.00;100535.69;5033553;28;20130;-72
2021/12/30 03:19:12;;;;;;;2.42;1.63;;;;;;;13.44;100.00;100548.19;5032382;28;20449;-71
2021/12/30 03:21:56;;;;;;;2.47;1.30;;;;;;;13.45;100.00;100544.53;5032280;28;20048;-72
2021/12/30 03:24:40;;;;;;;2.63;1.58;;;;;;;13.45;100.00;100557.94;5033196;28;20079;-72
2021/12/30 03:27:24;;;;;;;4.10;1.45;;;;;;;13.46;100.00;100554.25;5032496;28;20107;-72
2021/12/30 03:30:14;;;;;;;1.55;1.30;;;;;;;13.42;100.00;100558.22;5033042;28;20072;-72
2021/12/30 03:32:58;;;;;;;5.05;1.58;;;;;;;13.46;100.00;100551.56;5018219;28;20044;-71
2021/12/30 03:35:42;;;;;;;1.92;1.83;;;;;;;13.46;100.00;100564.97;5032096;28;20120;-71
2021/12/30 03:38:35;;;;;;;3.67;1.88;;;;;;;13.42;100.00;100571.63;5032076;28;20048;-71
2021/12/30 03:41:23;;;;;;;4.03;1.60;;;;;;;13.38;100.00;100573.75;5031692;28;20044;-71
2021/12/30 03:44:07;;;;;;;5.07;2.13;;;;;;;13.40;100.00;100578.97;5032781;28;20281;-71
2021/12/30 03:46:50;;;;;;;3.05;1.83;;;;;;;13.37;100.00;100573.94;5032808;28;20056;-71
2021/12/30 03:49:34;;;;;;;2.58;1.92;;;;;;;13.37;100.00;100579.28;5031815;28;20044;-72
2021/12/30 03:52:30;;;;;;;1.98;1.60;;;;;;;13.33;100.00;100581.44;5031650;28;20048;-71
2021/12/30 03:55:15;;;;;;;4.22;2.00;;;;;;;13.29;100.00;100582.75;5019056;28;20405;-69
2021/12/30 03:57:59;;;;;;;3.78;1.58;;;;;;;13.25;100.00;100594.72;5030688;28;20052;-72
2021/12/30 04:00:43;;;;;;;2.83;1.55;;;;;;;13.25;100.00;100596.59;5032707;28;20131;-71
2021/12/30 04:03:28;;;;;;;2.20;1.60;;;;;;;13.19;100.00;100591.81;5032707;28;20053;-72
2021/12/30 04:06:12;;;;;;;4.72;2.13;;;;;;;13.16;100.00;100600.19;5032657;28;20060;-72
2021/12/30 04:08:57;;;;;;;3.25;2.38;;;;;;;13.17;100.00;100610.72;5032638;28;20052;-72
2021/12/30 04:11:41;;;;;;;3.78;2.33;;;;;;;13.11;100.00;100605.97;5032570;28;20052;-71
2021/12/30 04:14:26;;;;;;;;;;;;;;;13.06;100.00;100604.75;5031954;28;20044;-70
2021/12/30 04:17:10;;;;;;;4.43;3.30;;;;;;;13.03;100.00;100605.03;5031483;28;19920;-72
2021/12/30 04:19:54;;;;;;;6.60;3.90;;;;;;;13.01;100.00;100596.31;5032201;28;20171;-71
2021/12/30 04:22:39;;;;;;;7.47;4.40;;;;;;;12.97;100.00;100603.00;5031111;28;20095;-72
2021/12/30 04:25:24;;;;;;;5.90;3.75;;;;;;;12.95;100.00;100611.16;5032340;28;20559;-72
2021/12/30 04:28:08;;;;;;;7.72;4.00;;;;;;;13.01;100.00;100610.56;5017294;28;20052;-71
2021/12/30 04:30:52;;;;;;;5.38;3.63;;;;;;;13.01;100.00;100602.53;5030880;28;20068;-72
2021/12/30 04:33:36;;;;;;;6.20;3.65;;;;;;;13.02;100.00;100612.25;5031206;28;20421;-72
2021/12/30 04:36:20;;;;;;;5.82;2.60;;;;;;;13.12;100.00;100614.84;5031489;28;20088;-71
2021/12/30 04:39:04;;;;;;;;;;;;;;;13.15;100.00;100615.38;5031630;28;20049;-70
2021/12/30 04:41:48;;;;;;;2.53;1.90;;;;;;;13.12;100.00;100612.16;5031020;28;20404;-71
2021/12/30 04:44:32;;;;;;;3.47;1.70;;;;;;;13.09;100.00;100610.66;5031512;28;20064;-71
2021/12/30 04:47:16;;;;;;;4.32;1.70;;;;;;;13.14;100.00;100615.56;5031290;28;20409;-71
2021/12/30 04:50:00;;;;;;;2.70;1.27;;;;;;;13.13;100.00;100621.88;5030613;28;20052;-72
2021/12/30 04:52:44;;;;;;;3.42;1.50;;;;;;;13.17;100.00;100625.94;5030966;28;20044;-71
2021/12/30 04:55:28;;;;;;;1.65;1.27;;;;;;;13.19;100.00;100629.31;5031299;28;20044;-71
2021/12/30 04:58:12;;;;;;;5.22;1.48;;;;;;;13.29;100.00;100640.78;5030984;28;20110;-72
2021/12/30 05:00:56;;;;;;;1.80;1.02;;;;;;;13.23;100.00;100636.88;5030924;28;20048;-71
2021/12/30 05:03:40;;;;;;;7.07;1.30;;;;;;;13.32;100.00;100643.16;5030754;28;20056;-71
2021/12/30 05:06:24;;;;;;;1.23;1.13;;;;;;;13.41;100.00;100644.91;5032241;28;20044;-71
2021/12/30 05:09:09;;;;;;;1.23;0.95;;;;;;;13.46;100.00;100650.66;5033566;28;20075;-71
2021/12/30 05:11:53;;;;;;;1.00;0.90;;;;;;;13.53;100.00;100649.03;5035014;28;20129;-71
2021/12/30 05:14:37;;;;;;;3.22;0.90;;;;;;;13.60;100.00;100644.75;5035846;28;20128;-71
2021/12/30 05:17:22;;;;;;;0.98;0.98;;;;;;;13.66;100.00;100638.81;5020741;28;20428;-70
2021/12/30 05:20:08;;;;;;;2.13;0.88;;;;;;;13.72;100.00;100633.66;5034376;28;20134;-71
2021/12/30 05:22:51;;;;;;;3.50;1.00;;;;;;;13.77;100.00;100635.88;5034884;28;20056;-71
2021/12/30 05:25:36;;;;;;;5.82;1.13;;;;;;;13.72;100.00;100636.34;5034556;28;20106;-70
2021/12/30 05:28:20;;;;;;;1.10;0.98;;;;;;;13.82;100.00;100655.00;5034295;28;20045;-71
2021/12/30 05:31:04;;;;;;;1.05;1.00;;;;;;;13.78;100.00;100653.63;5035170;28;20056;-70
2021/12/30 05:33:48;;;;;;;1.00;0.90;;;;;;;13.77;100.00;100646.59;5035281;28;20093;-71
2021/12/30 05:36:32;;;;;;;2.28;1.10;;;;;;;13.79;100.00;100639.22;5020348;28;20068;-70
2021/12/30 05:39:16;;;;;;;1.85;1.27;;;;;;;13.79;100.00;100648.09;5034344;28;20230;-71
2021/12/30 05:42:00;;;;;;;2.58;1.10;;;;;;;13.78;100.00;100645.59;5034176;28;20072;-72
2021/12/30 05:44:44;;;;;;;1.58;1.10;;;;;;;13.75;100.00;100649.41;5034018;28;20095;-71
2021/12/30 05:47:28;;;;;;;1.23;0.90;;;;;;;13.76;100.00;100661.00;5035306;28;20080;-71
2021/12/30 05:50:13;;;;;;;;;;;;;;;13.78;100.00;100664.34;5036858;28;20084;-71
2021/12/30 05:52:57;;;;;;;;;;;;;;;13.73;100.00;100672.84;5034292;28;20360;-71
2021/12/30 05:55:41;;;;;;;1.70;1.00;;;;;;;13.70;100.00;100664.28;5020356;28;20317;-71
2021/12/30 05:58:25;;;;;;;2.15;0.80;;;;;;;13.75;100.00;100667.34;5033946;28;20404;-71
2021/12/30 06:01:09;;;;;;;2.05;1.20;;;;;;;13.72;100.00;100667.63;5034078;28;20088;-71
2021/12/30 06:03:53;;;;;;;1.58;0.90;;;;;;;13.73;100.00;100677.34;5034807;28;20052;-71
2021/12/30 06:06:37;;;;;;;0.93;0.93;;;;;;;13.73;100.00;100672.00;5019837;28;20103;-72
2021/12/30 06:09:23;;;;;;;0.80;0.80;;;;;;;13.72;100.00;100687.25;5034525;28;20049;-72
2021/12/30 06:12:08;;;;;;;2.40;1.20;;;;;;;13.72;100.00;100681.03;5033743;28;20124;-70
2021/12/30 06:14:53;;;;;;;1.50;1.00;;;;;;;13.68;100.00;100685.84;5033544;28;20123;-71
2021/12/30 06:17:37;;;;;;;1.15;0.90;;;;;;;13.67;100.00;100686.03;5019587;28;20048;-70
2021/12/30 06:20:21;;;;;;;1.10;0.90;;;;;;;13.65;100.00;100694.19;5032392;28;20092;-71
2021/12/30 06:23:05;;;;;;;1.10;1.00;;;;;;;13.65;100.00;100696.06;5036553;28;20452;-71
2021/12/30 06:25:49;;;;;;;;;;;;;;;13.67;100.00;100710.97;5037397;28;20053;-72
2021/12/30 06:28:33;;;;;;;1.20;1.10;;;;;;;13.68;100.00;100707.28;5035331;28;19939;-72
2021/12/30 06:31:17;;;;;;;5.20;0.82;;;;;;;13.65;100.00;100714.81;5035596;28;20115;-71
2021/12/30 06:34:01;;;;;;;0.80;0.80;;;;;;;13.66;100.00;100714.63;5034931;28;20052;-71
2021/12/30 06:36:45;;;;;;;1.67;0.80;;;;;;;13.72;100.00;100715.88;5033681;28;20512;-71
2021/12/30 06:39:29;;;;;;;0.98;0.73;;;;;;;13.85;100.00;100727.03;5034292;28;20449;-71
2021/12/30 06:42:13;;;;;;;1.38;0.85;;;;;;;13.80;100.00;100726.66;5034269;28;20107;-71
2021/12/30 06:44:57;;;;;;;0.55;0.55;;;;;;;13.76;100.00;100730.66;5034582;28;20501;-71
2021/12/30 06:47:41;;;;;;;;;;;;;;;13.76;100.00;100731.47;5033630;28;20142;-71
2021/12/30 06:50:30;;;;;;;1.95;0.73;;;;;;;13.76;100.00;100741.38;5032688;28;20360;-71
2021/12/30 06:53:14;;;;;;;1.35;0.70;;;;;;;13.81;100.00;100749.78;5033190;28;20052;-70
2021/12/30 06:55:58;;;;;;;3.67;0.80;;;;;;;13.75;100.00;100745.06;5033106;28;20053;-71
2021/12/30 06:58:42;;;;;;;0.65;0.65;;;;;;;13.88;100.00;100746.31;5032873;28;20068;-71
2021/12/30 07:01:29;;;;;;;0.70;0.70;;;;;;;13.91;100.00;100750.53;5033648;28;20044;-71
2021/12/30 07:04:13;;;;;;;0.68;0.63;;;;;;;13.84;100.00;100752.16;5018879;28;20056;-71
2021/12/30 07:06:57;;;;;;;3.17;0.93;;;;;;;13.85;100.00;100757.38;5032704;28;20417;-71
2021/12/30 07:09:41;;;;;;;0.95;0.60;;;;;;;13.88;100.00;100762.41;5032290;28;20052;-72
2021/12/30 07:12:25;;;;;;;1.75;0.82;;;;;;;13.88;100.00;100772.31;5033462;28;20060;-72
2021/12/30 07:15:10;;;;;;;1.45;0.70;;;;;;;13.86;100.00;100771.63;5032469;28;20068;-70
2021/12/30 07:17:53;;;;;;;;;;;;;;;13.86;100.00;100775.13;5033071;28;20102;-70
2021/12/30 07:20:37;;;;;;;1.27;0.73;;;;;;;13.88;100.00;100775.81;5032260;28;20002;-72
2021/12/30 07:23:21;;;;;;;0.82;0.80;;;;;;;13.80;100.00;100785.63;5018556;28;20056;-71
2021/12/30 07:26:05;;;;;;;0.68;0.68;;;;;;;13.81;100.00;100792.66;5033501;28;20140;-71
2021/12/30 07:28:49;;;;;;;0.65;0.63;;;;;;;13.79;100.00;100781.25;5018402;28;20162;-70
2021/12/30 07:31:33;;;;;;;1.20;0.88;;;;;;;13.81;100.00;100787.31;5017877;28;20198;-71
2021/12/30 07:34:17;;;;;;;1.52;0.75;;;;;;;13.84;100.00;100795.03;5032438;28;20120;-71
2021/12/30 07:37:01;;;;;;;0.77;0.77;;;;;;;13.87;100.00;100800.94;5032211;28;20454;-72
2021/12/30 07:39:45;;;;;;;;;;;;;;;13.88;100.00;100799.09;5033290;28;20104;-71
2021/12/30 07:42:29;;;;;;;0.88;0.88;;;;;;;13.87;100.00;100811.66;5032937;28;19992;-71
2021/12/30 07:45:13;;;;;;;2.28;0.90;;;;;;;13.95;100.00;100816.25;5032021;28;20186;-71
2021/12/30 07:47:57;;;;;;;1.23;0.77;;;;;;;13.92;100.00;100817.41;5031998;28;20115;-70
2021/12/30 07:50:41;;;;;;;3.97;0.77;;;;;;;13.89;100.00;100823.06;5032737;28;20103;-70
2021/12/30 07:53:25;;;;;;;1.13;0.80;;;;;;;13.82;100.00;100822.00;5031845;28;20049;-71
2021/12/30 07:56:09;;;;;;;2.40;0.75;;;;;;;13.82;100.00;100835.41;5031891;28;20401;-70
2021/12/30 07:58:53;;;;;;;1.52;0.73;;;;;;;13.76;100.00;100835.16;5031766;28;20068;-71
2021/12/30 08:01:37;;;;;;;1.08;0.80;;;;;;;13.70;100.00;100838.44;5031665;28;20087;-70
2021/12/30 08:04:21;;;;;;;1.67;0.80;;;;;;;13.67;100.00;100839.56;5032052;28;20055;-71
2021/12/30 08:07:05;;;;;;;;;;;;;;;13.66;100.00;100842.41;5032336;28;20088;-71
2021/12/30 08:09:50;;;;;;;1.07;0.93;;;;;;;13.57;100.00;100832.59;5031216;28;19939;-71
2021/12/30 08:12:33;;;;;;;1.20;1.10;;;;;;;13.51;100.00;100833.19;5031545;28;20633;-71
2021/12/30 08:15:18;;;;;;;1.65;1.30;;;;;;;13.44;100.00;100830.25;5032391;28;20114;-71
2021/12/30 08:18:02;;;;;;;1.58;1.33;;;;;;;13.44;100.00;100838.28;5031197;28;20048;-71
2021/12/30 08:20:46;;;;;;;1.35;1.00;;;;;;;13.38;100.00;100841.56;5031445;28;20148;-71
2021/12/30 08:23:30;;;;;;;0.90;0.90;;;;;;;13.34;100.00;100836.69;5032567;28;20107;-71
2021/12/30 08:26:14;;;;;;;1.52;1.00;;;;;;;13.37;100.00;100839.03;5017656;28;20068;-70
2021/12/30 08:28:58;;;;;;;1.38;1.10;;;;;;;13.40;100.00;100838.75;5017418;28;20044;-72
2021/12/30 08:31:42;;;;;;;;;;;;;;;13.36;100.00;100835.50;5031589;28;20049;-71
2021/12/30 08:34:26;;;;;;;1.63;1.33;;;;;;;13.39;100.00;100839.72;5031270;28;20332;-71
2021/12/30 08:37:11;;;;;;;1.45;1.27;;;;;;;13.39;100.00;100845.09;5032080;28;20155;-70
2021/12/30 08:39:55;;;;;;;2.97;1.50;;;;;;;13.41;100.00;100843.09;5030871;28;20135;-70
2021/12/30 08:42:40;;;;;;;2.80;1.30;;;;;;;13.42;100.00;100850.13;5030643;28;20053;-69
2021/12/30 08:45:24;;;;;;;2.15;1.33;;;;;;;13.43;100.00;100850.00;5032363;28;20151;-71
2021/12/30 08:48:08;;;;;;;1.60;1.50;;;;;;;13.42;100.00;100847.47;5032164;28;20055;-71
2021/12/30 08:50:52;;;;;;;5.57;1.55;;;;;;;13.38;100.00;100848.75;5016750;28;20531;-71
2021/12/30 08:53:40;;;;;;;1.90;1.50;;;;;;;13.36;100.00;100845.41;5030964;28;20053;-70
2021/12/30 08:56:24;;;;;;;1.13;1.00;;;;;;;13.45;100.00;100839.97;5032359;28;20362;-71
2021/12/30 08:59:08;;;;;;;1.98;1.40;;;;;;;13.48;100.00;100850.38;5032308;28;20125;-71
2021/12/30 09:01:52;;;;;;;2.80;1.02;;;;;;;13.48;100.00;100853.06;5030987;28;20186;-69
2021/12/30 09:04:36;;;;;;;2.97;1.25;;;;;;;13.56;100.00;100847.81;5031948;28;20103;-71
2021/12/30 09:07:21;;;;;;;1.25;1.13;;;;;;;13.59;100.00;100858.25;5030891;28;20043;-70
2021/12/30 09:10:09;;;;;;;3.40;1.20;;;;;;;13.65;100.00;100851.44;5030608;28;20045;-71
2021/12/30 09:12:54;;;;;;;0.95;0.95;;;;;;;13.73;100.00;100860.41;5030643;28;20114;-71
2021/12/30 09:15:38;;;;;;;1.25;1.02;;;;;;;13.77;100.00;100853.75;5030629;28;20080;-71
2021/12/30 09:18:24;;;;;;;1.67;1.13;;;;;;;13.81;100.00;100849.78;5032182;28;20076;-71
2021/12/30 09:21:08;;;;;;;1.38;1.27;;;;;;;13.90;100.00;100840.00;5030704;28;20051;-71
2021/12/30 09:23:52;;;;;;;1.10;0.98;;;;;;;13.94;100.00;100849.41;5031977;28;20492;-70
2021/12/30 09:26:37;;;;;;;2.33;1.10;;;;;;;13.96;100.00;100858.16;5031665;28;20515;-72
2021/12/30 09:29:21;;;;;;;0.90;0.90;;;;;;;13.94;100.00;100854.75;5031722;28;20511;-69
2021/12/30 09:32:05;;;;;;;1.08;1.00;;;;;;;14.00;100.00;100856.84;5030552;28;20056;-70
2021/12/30 09:34:49;;;;;;;1.23;0.93;;;;;;;14.00;100.00;100857.72;5031774;28;20052;-70
2021/12/30 09:37:33;;;;;;;1.00;0.90;;;;;;;14.00;100.00;100864.91;5031747;28;20055;-71
2021/12/30 09:40:17;;;;;;;1.60;0.90;;;;;;;14.06;100.00;100866.97;5016591;28;20044;-71
2021/12/30 09:43:04;;;;;;;4.47;1.10;;;;;;;14.06;100.00;100880.38;5016609;28;20076;-70
2021/12/30 09:45:48;;;;;;;2.92;1.20;;;;;;;14.04;100.00;100880.53;5030388;28;20460;-71
2021/12/30 09:48:32;;;;;;;0.95;0.95;;;;;;;14.08;100.00;100881.91;5031679;28;20064;-71
2021/12/30 09:51:16;;;;;;;;;;;;;;;13.92;100.00;100899.66;5031589;28;20058;-71
2021/12/30 09:54:03;;;;;;;1.60;1.03;;;;;;;13.86;100.00;100898.41;5031959;28;19936;-71
2021/12/30 09:56:47;;;;;;;2.20;1.05;;;;;;;13.81;100.00;100907.91;5033702;28;20055;-71
2021/12/30 09:59:32;;;;;;;1.60;1.27;;;;;;;13.69;100.00;100917.13;5033908;28;20060;-71
2021/12/30 10:02:16;;;;;;;2.90;1.50;;;;;;;13.60;100.00;100920.69;5035376;28;20462;-71
2021/12/30 10:05:06;;;;;;;2.72;1.48;;;;;;;13.55;100.00;100928.34;5033726;28;20048;-70
2021/12/30 10:08:26;;;;;;;2.30;1.73;;;;;;;13.48;100.00;100929.91;5033869;28;20052;-71
2021/12/30 10:11:13;;;;;;;4.20;1.90;;;;;;;13.49;100.00;100926.25;5034653;28;20103;-71
2021/12/30 10:14:00;;;;;;;3.58;2.05;;;;;;;13.50;100.00;100928.78;5033785;28;20056;-71
2021/12/30 10:16:43;;;;;;;3.17;1.92;;;;;;;13.45;100.00;100925.69;5033414;28;20103;-71
2021/12/30 10:19:29;;;;;;;2.67;2.35;;;;;;;13.42;100.00;100914.41;5019615;28;20111;-71
2021/12/30 10:22:15;;;;;;;3.65;2.70;;;;;;;13.35;100.00;100918.69;5034557;28;20087;-72
2021/12/30 10:24:59;;;;;;;4.18;3.13;;;;;;;13.35;100.00;100919.53;5034680;28;20041;-70
2021/12/30 10:27:43;;;;;;;;;;;;;;;13.38;100.00;100919.22;5034739;28;20056;-72
2021/12/30 10:30:34;;;;;;;5.10;3.08;;;;;;;13.39;100.00;100918.25;5034423;28;19935;-71
2021/12/30 10:33:20;;;;;;;4.45;2.58;;;;;;;13.39;100.00;100915.59;5033285;28;20122;-71
2021/12/30 10:36:17;;;;;;;4.72;2.70;;;;;;;13.41;100.00;100918.09;5019365;28;20052;-70
2021/12/30 10:39:20;;;;;;;5.90;2.55;;;;;;;13.43;100.00;100921.47;5034715;28;20460;-71
2021/12/30 10:42:04;;;;;;;4.05;2.55;;;;;;;13.43;100.00;100921.47;5034163;28;20052;-70
2021/12/30 10:44:57;;;;;;;2.97;2.40;;;;;;;13.47;100.00;100918.34;5034549;28;20092;-71
2021/12/30 10:47:53;;;;;;;1.98;1.75;;;;;;;13.53;100.00;100914.22;5019275;28;20128;-71
2021/12/30 10:50:37;;;;;;;3.30;2.10;;;;;;;13.61;100.00;100912.53;5032794;28;20102;-71
2021/12/30 10:53:30;;;;;;;2.75;1.70;;;;;;;13.65;100.00;100905.03;5034126;28;20119;-72
2021/12/30 10:56:22;;;;;;;1.65;1.33;;;;;;;13.71;100.00;100904.44;5034541;28;20044;-72
2021/12/30 10:59:14;;;;;;;1.48;1.38;;;;;;;13.72;100.00;100911.47;5034024;28;20111;-71
2021/12/30 11:02:03;;;;;;;2.08;1.23;;;;;;;13.81;100.00;100899.84;5034199;28;20103;-71
2021/12/30 11:04:54;;;;;;;1.40;1.17;;;;;;;13.95;100.00;100894.84;5032671;28;20405;-70
2021/12/30 11:07:46;;;;;;;3.10;1.60;;;;;;;14.15;100.00;100893.72;5032550;28;20512;-70
2021/12/30 11:10:38;;;;;;;1.63;1.27;;;;;;;14.22;100.00;100886.78;5033616;28;20044;-71
2021/12/30 11:13:23;;;;;;;0.90;0.90;;;;;;;14.23;100.00;100890.31;5032539;28;20044;-71
2021/12/30 11:16:08;;;;;;;1.20;1.10;;;;;;;14.25;100.00;100888.31;5032569;28;20056;-70
2021/12/30 11:18:52;;;;;;;2.45;1.27;;;;;;;14.28;100.00;100893.38;5034036;28;20072;-71
2021/12/30 11:21:38;;;;;;;1.60;1.40;;;;;;;14.24;100.00;100891.97;5032489;28;20056;-71
2021/12/30 11:24:22;;;;;;;1.45;1.20;;;;;;;14.28;100.00;100888.03;5033354;28;20052;-71
2021/12/30 11:27:08;;;;;;;;;;;;;;;14.27;100.00;100886.34;5018880;28;20049;-71
2021/12/30 11:29:57;;;;;;;1.77;1.33;;;;;;;14.26;100.00;100887.34;5032198;28;19979;-70
2021/12/30 11:32:43;;;;;;;2.03;1.23;;;;;;;14.27;100.00;100880.97;5032094;28;20049;-70
2021/12/30 11:35:27;;;;;;;1.27;1.10;;;;;;;14.31;100.00;100893.06;5018371;28;20048;-70
2021/12/30 11:38:11;;;;;;;1.88;1.20;;;;;;;14.31;100.00;100871.63;5032151;28;20095;-71
2021/12/30 11:40:55;;;;;;;1.27;1.17;;;;;;;14.33;100.00;100869.63;5031949;28;20069;-70
2021/12/30 11:43:44;;;;;;;1.88;1.20;;;;;;;14.35;100.00;100868.47;5031904;28;20152;-71
2021/12/30 11:46:41;;;;;;;4.32;1.33;;;;;;;14.37;100.00;100873.69;5032158;28;20107;-71
2021/12/30 11:49:55;;;;;;;1.27;1.17;;;;;;;14.35;100.00;100864.94;5031943;28;20060;-71
2021/12/30 11:52:55;;;;;;;1.38;1.20;;;;;;;14.40;100.00;100863.47;5031844;28;20064;-70
2021/12/30 11:55:46;;;;;;;2.63;1.38;;;;;;;14.44;100.00;100866.69;5032788;28;20457;-70
2021/12/30 12:01:24;;;;;;;1.23;1.17;;;;;;;14.42;100.00;100869.56;5033045;28;20044;-70
2021/12/30 12:04:10;;;;;;;1.30;1.20;;;;;;;14.46;100.00;100870.06;5032539;28;20067;-71
2021/12/30 12:07:01;;;;;;;1.25;1.15;;;;;;;14.48;100.00;100868.09;5031440;28;20147;-71
2021/12/30 12:09:45;;;;;;;1.40;1.30;;;;;;;14.52;100.00;100869.44;5031792;28;20047;-70
2021/12/30 12:12:32;;;;;;;1.33;1.23;;;;;;;14.56;100.00;100865.44;5033316;28;20107;-71
2021/12/30 12:15:16;;;;;;;1.23;1.15;;;;;;;14.58;100.00;100867.00;5033580;28;20053;-71
2021/12/30 12:18:11;;;;;;;1.30;1.08;;;;;;;14.60;100.00;100856.94;5031507;28;20091;-71
2021/12/30 12:20:57;;;;;;;0.93;0.93;;;;;;;14.61;100.00;100863.16;5032042;28;20053;-70
2021/12/30 12:23:45;;;;;;;1.95;1.20;;;;;;;14.61;100.00;100860.47;5033117;28;20461;-71
2021/12/30 12:26:38;;;;;;;2.63;1.10;;;;;;;14.63;100.00;100871.88;5018522;28;20063;-69
2021/12/30 12:29:32;;;;;;;1.55;1.38;;;;;;;14.66;100.00;100864.38;5017956;28;20044;-71
2021/12/30 12:32:18;;;;;;;1.67;1.10;;;;;;;14.67;100.00;100862.56;5031954;28;20051;-71
2021/12/30 12:35:27;;;;;;;2.25;1.20;;;;;;;14.67;100.00;100866.06;5017987;28;20099;-71
2021/12/30 12:38:11;;;;;;;2.17;1.08;;;;;;;14.58;100.00;100866.16;5031812;28;20096;-71
2021/12/30 12:40:55;;;;;;;4.32;1.40;;;;;;;14.63;100.00;100867.38;5032760;28;20406;-71
2021/12/30 12:43:39;;;;;;;0.90;0.90;;;;;;;14.62;100.00;100870.22;5031537;28;20094;-71
2021/12/30 12:46:46;;;;;;;1.30;1.20;;;;;;;14.60;100.00;100864.16;5031776;28;20048;-70
2021/12/30 12:49:33;;;;;;;1.45;1.23;;;;;;;14.56;100.00;100866.31;5031163;28;20044;-72